sensor_id;sensor_type;location;lat;lon;timestamp;P1;durP1;ratioP1;P2;durP2;ratioP2
20255;SDS011;10286;59.364;18.016;2022-10-15T00:00:45;21.90;;;14.23;;
20255;SDS011;10286;59.364;18.016;2022-10-15T00:03:13;20.35;;;13.70;;
20255;SDS011;10286;59.364;18.016;2022-10-15T00:05:40;20.92;;;14.45;;
20255;SDS011;10286;59.364;18.016;2022-10-15T00:08:08;25.70;;;14.02;;
20255;SDS011;10286;59.364;18.016;2022-10-15T00:10:37;25.65;;;14.07;;
20255;SDS011;10286;59.364;18.016;2022-10-15T00:13:04;25.92;;;15.45;;
20255;SDS011;10286;59.364;18.016;2022-10-15T00:15:34;30.30;;;16.65;;
20255;SDS011;10286;59.364;18.016;2022-10-15T00:18:01;29.08;;;16.33;;
20255;SDS011;10286;59.364;18.016;2022-10-15T00:20:29;28.48;;;16.65;;
20255;SDS011;10286;59.364;18.016;2022-10-15T00:22:56;27.52;;;16.05;;
20255;SDS011;10286;59.364;18.016;2022-10-15T00:25:23;24.48;;;15.73;;
20255;SDS011;10286;59.364;18.016;2022-10-15T00:27:51;29.57;;;16.27;;
20255;SDS011;10286;59.364;18.016;2022-10-15T00:30:18;27.75;;;15.48;;
20255;SDS011;10286;59.364;18.016;2022-10-15T00:32:46;33.67;;;18.27;;
20255;SDS011;10286;59.364;18.016;2022-10-15T00:35:13;29.80;;;17.27;;
20255;SDS011;10286;59.364;18.016;2022-10-15T00:37:40;30.92;;;16.30;;
20255;SDS011;10286;59.364;18.016;2022-10-15T00:40:08;27.73;;;15.85;;
20255;SDS011;10286;59.364;18.016;2022-10-15T00:42:39;33.28;;;16.35;;
20255;SDS011;10286;59.364;18.016;2022-10-15T00:45:09;31.00;;;16.43;;
20255;SDS011;10286;59.364;18.016;2022-10-15T00:47:38;23.90;;;15.55;;
20255;SDS011;10286;59.364;18.016;2022-10-15T00:50:08;29.73;;;16.52;;
20255;SDS011;10286;59.364;18.016;2022-10-15T00:52:40;30.27;;;16.48;;
20255;SDS011;10286;59.364;18.016;2022-10-15T00:55:12;29.98;;;16.58;;
20255;SDS011;10286;59.364;18.016;2022-10-15T00:57:41;27.17;;;16.40;;
20255;SDS011;10286;59.364;18.016;2022-10-15T01:00:12;28.38;;;15.90;;
20255;SDS011;10286;59.364;18.016;2022-10-15T01:02:40;28.58;;;14.07;;
20255;SDS011;10286;59.364;18.016;2022-10-15T01:05:08;27.70;;;15.10;;
20255;SDS011;10286;59.364;18.016;2022-10-15T01:07:35;22.02;;;14.23;;
20255;SDS011;10286;59.364;18.016;2022-10-15T01:10:03;25.67;;;14.60;;
20255;SDS011;10286;59.364;18.016;2022-10-15T01:12:36;24.83;;;14.10;;
20255;SDS011;10286;59.364;18.016;2022-10-15T01:15:14;23.70;;;13.45;;
20255;SDS011;10286;59.364;18.016;2022-10-15T01:17:45;20.85;;;12.20;;
20255;SDS011;10286;59.364;18.016;2022-10-15T01:20:28;18.75;;;11.98;;
20255;SDS011;10286;59.364;18.016;2022-10-15T01:26:25;16.30;;;11.70;;
20255;SDS011;10286;59.364;18.016;2022-10-15T01:29:12;15.07;;;10.18;;
20255;SDS011;10286;59.364;18.016;2022-10-15T01:31:49;16.63;;;10.07;;
20255;SDS011;10286;59.364;18.016;2022-10-15T01:34:29;14.75;;;10.15;;
20255;SDS011;10286;59.364;18.016;2022-10-15T01:37:05;16.52;;;10.90;;
20255;SDS011;10286;59.364;18.016;2022-10-15T01:39:37;16.52;;;10.48;;
20255;SDS011;10286;59.364;18.016;2022-10-15T01:42:09;15.27;;;9.98;;
20255;SDS011;10286;59.364;18.016;2022-10-15T01:44:42;17.15;;;10.13;;
20255;SDS011;10286;59.364;18.016;2022-10-15T01:47:16;19.20;;;9.93;;
20255;SDS011;10286;59.364;18.016;2022-10-15T01:49:50;15.35;;;10.23;;
20255;SDS011;10286;59.364;18.016;2022-10-15T01:52:21;15.65;;;10.05;;
20255;SDS011;10286;59.364;18.016;2022-10-15T01:54:51;15.93;;;9.90;;
20255;SDS011;10286;59.364;18.016;2022-10-15T01:57:19;15.32;;;10.52;;
20255;SDS011;10286;59.364;18.016;2022-10-15T01:59:49;15.50;;;9.77;;
20255;SDS011;10286;59.364;18.016;2022-10-15T02:02:18;17.80;;;10.07;;
20255;SDS011;10286;59.364;18.016;2022-10-15T02:04:45;18.52;;;9.23;;
20255;SDS011;10286;59.364;18.016;2022-10-15T02:07:13;14.55;;;9.65;;
20255;SDS011;10286;59.364;18.016;2022-10-15T02:09:51;18.17;;;10.83;;
20255;SDS011;10286;59.364;18.016;2022-10-15T02:12:30;14.82;;;10.02;;
20255;SDS011;10286;59.364;18.016;2022-10-15T02:15:08;17.25;;;9.63;;
20255;SDS011;10286;59.364;18.016;2022-10-15T02:17:42;15.68;;;9.90;;
20255;SDS011;10286;59.364;18.016;2022-10-15T02:20:18;17.48;;;9.70;;
20255;SDS011;10286;59.364;18.016;2022-10-15T02:22:49;16.42;;;10.55;;
20255;SDS011;10286;59.364;18.016;2022-10-15T02:25:21;16.95;;;10.30;;
20255;SDS011;10286;59.364;18.016;2022-10-15T02:27:51;15.93;;;10.85;;
20255;SDS011;10286;59.364;18.016;2022-10-15T02:30:21;18.05;;;10.20;;
20255;SDS011;10286;59.364;18.016;2022-10-15T02:32:52;21.10;;;10.80;;
20255;SDS011;10286;59.364;18.016;2022-10-15T02:35:22;16.83;;;10.50;;
20255;SDS011;10286;59.364;18.016;2022-10-15T02:37:50;16.30;;;10.50;;
20255;SDS011;10286;59.364;18.016;2022-10-15T02:40:20;18.02;;;10.13;;
20255;SDS011;10286;59.364;18.016;2022-10-15T02:42:51;19.65;;;11.18;;
20255;SDS011;10286;59.364;18.016;2022-10-15T02:45:19;17.52;;;10.23;;
20255;SDS011;10286;59.364;18.016;2022-10-15T02:47:47;19.25;;;11.23;;
20255;SDS011;10286;59.364;18.016;2022-10-15T02:50:16;16.00;;;9.75;;
20255;SDS011;10286;59.364;18.016;2022-10-15T02:52:43;16.92;;;9.88;;
20255;SDS011;10286;59.364;18.016;2022-10-15T02:55:10;16.92;;;10.02;;
20255;SDS011;10286;59.364;18.016;2022-10-15T02:57:37;17.55;;;10.18;;
20255;SDS011;10286;59.364;18.016;2022-10-15T03:00:05;13.93;;;9.73;;
20255;SDS011;10286;59.364;18.016;2022-10-15T03:02:32;18.25;;;9.73;;
20255;SDS011;10286;59.364;18.016;2022-10-15T03:04:59;14.60;;;9.15;;
20255;SDS011;10286;59.364;18.016;2022-10-15T03:07:28;16.20;;;9.20;;
20255;SDS011;10286;59.364;18.016;2022-10-15T03:09:55;17.70;;;9.05;;
20255;SDS011;10286;59.364;18.016;2022-10-15T03:12:22;14.43;;;8.57;;
20255;SDS011;10286;59.364;18.016;2022-10-15T03:14:50;13.32;;;8.20;;
20255;SDS011;10286;59.364;18.016;2022-10-15T03:17:17;12.70;;;7.85;;
20255;SDS011;10286;59.364;18.016;2022-10-15T03:19:44;10.57;;;8.13;;
20255;SDS011;10286;59.364;18.016;2022-10-15T03:22:12;11.27;;;7.47;;
20255;SDS011;10286;59.364;18.016;2022-10-15T03:24:40;13.40;;;8.15;;
20255;SDS011;10286;59.364;18.016;2022-10-15T03:27:07;17.35;;;8.32;;
20255;SDS011;10286;59.364;18.016;2022-10-15T03:29:34;10.48;;;7.85;;
20255;SDS011;10286;59.364;18.016;2022-10-15T03:32:01;12.07;;;7.75;;
20255;SDS011;10286;59.364;18.016;2022-10-15T03:34:29;12.00;;;7.27;;
20255;SDS011;10286;59.364;18.016;2022-10-15T03:36:56;11.23;;;7.35;;
20255;SDS011;10286;59.364;18.016;2022-10-15T03:39:23;11.73;;;7.73;;
20255;SDS011;10286;59.364;18.016;2022-10-15T03:41:52;11.25;;;6.82;;
20255;SDS011;10286;59.364;18.016;2022-10-15T03:44:19;9.60;;;6.68;;
20255;SDS011;10286;59.364;18.016;2022-10-15T03:46:46;11.00;;;6.63;;
20255;SDS011;10286;59.364;18.016;2022-10-15T03:49:13;11.53;;;6.57;;
20255;SDS011;10286;59.364;18.016;2022-10-15T03:51:41;12.18;;;6.13;;
20255;SDS011;10286;59.364;18.016;2022-10-15T03:54:08;12.43;;;6.50;;
20255;SDS011;10286;59.364;18.016;2022-10-15T03:56:35;10.03;;;6.70;;
20255;SDS011;10286;59.364;18.016;2022-10-15T03:59:04;13.20;;;6.88;;
20255;SDS011;10286;59.364;18.016;2022-10-15T04:01:31;10.05;;;6.93;;
20255;SDS011;10286;59.364;18.016;2022-10-15T04:03:58;8.80;;;6.55;;
20255;SDS011;10286;59.364;18.016;2022-10-15T04:06:25;9.90;;;6.47;;
20255;SDS011;10286;59.364;18.016;2022-10-15T04:08:52;9.37;;;6.53;;
20255;SDS011;10286;59.364;18.016;2022-10-15T04:11:19;13.10;;;6.70;;
20255;SDS011;10286;59.364;18.016;2022-10-15T04:13:47;16.73;;;7.50;;
20255;SDS011;10286;59.364;18.016;2022-10-15T04:16:16;10.10;;;7.00;;
20255;SDS011;10286;59.364;18.016;2022-10-15T04:18:44;13.18;;;7.15;;
20255;SDS011;10286;59.364;18.016;2022-10-15T04:21:11;15.25;;;7.40;;
20255;SDS011;10286;59.364;18.016;2022-10-15T04:23:38;15.17;;;7.40;;
20255;SDS011;10286;59.364;18.016;2022-10-15T04:26:05;13.10;;;8.27;;
20255;SDS011;10286;59.364;18.016;2022-10-15T04:28:32;15.30;;;8.20;;
20255;SDS011;10286;59.364;18.016;2022-10-15T04:31:00;12.63;;;8.87;;
20255;SDS011;10286;59.364;18.016;2022-10-15T04:33:29;12.18;;;8.57;;
20255;SDS011;10286;59.364;18.016;2022-10-15T04:35:57;17.40;;;9.75;;
20255;SDS011;10286;59.364;18.016;2022-10-15T04:38:25;21.95;;;12.60;;
20255;SDS011;10286;59.364;18.016;2022-10-15T04:40:59;20.87;;;13.40;;
20255;SDS011;10286;59.364;18.016;2022-10-15T04:43:28;23.80;;;12.93;;
20255;SDS011;10286;59.364;18.016;2022-10-15T04:45:56;18.97;;;12.60;;
20255;SDS011;10286;59.364;18.016;2022-10-15T04:48:24;23.73;;;13.45;;
20255;SDS011;10286;59.364;18.016;2022-10-15T04:50:55;22.70;;;13.85;;
20255;SDS011;10286;59.364;18.016;2022-10-15T04:53:29;26.92;;;13.45;;
20255;SDS011;10286;59.364;18.016;2022-10-15T04:55:58;26.30;;;13.85;;
20255;SDS011;10286;59.364;18.016;2022-10-15T04:58:27;25.95;;;15.15;;
20255;SDS011;10286;59.364;18.016;2022-10-15T05:00:57;25.27;;;15.18;;
20255;SDS011;10286;59.364;18.016;2022-10-15T05:03:26;27.33;;;16.90;;
20255;SDS011;10286;59.364;18.016;2022-10-15T05:05:58;25.00;;;15.02;;
20255;SDS011;10286;59.364;18.016;2022-10-15T05:08:26;27.40;;;16.25;;
20255;SDS011;10286;59.364;18.016;2022-10-15T05:10:53;26.57;;;18.23;;
20255;SDS011;10286;59.364;18.016;2022-10-15T05:13:20;29.37;;;17.30;;
20255;SDS011;10286;59.364;18.016;2022-10-15T05:15:47;31.58;;;18.33;;
20255;SDS011;10286;59.364;18.016;2022-10-15T05:18:15;30.98;;;18.75;;
20255;SDS011;10286;59.364;18.016;2022-10-15T05:20:42;33.10;;;19.90;;
20255;SDS011;10286;59.364;18.016;2022-10-15T05:23:10;33.87;;;19.87;;
20255;SDS011;10286;59.364;18.016;2022-10-15T05:25:37;38.88;;;22.52;;
20255;SDS011;10286;59.364;18.016;2022-10-15T05:28:05;42.67;;;22.85;;
20255;SDS011;10286;59.364;18.016;2022-10-15T05:30:33;38.00;;;22.63;;
20255;SDS011;10286;59.364;18.016;2022-10-15T05:33:00;39.78;;;23.88;;
20255;SDS011;10286;59.364;18.016;2022-10-15T05:35:27;51.90;;;26.45;;
20255;SDS011;10286;59.364;18.016;2022-10-15T05:37:54;50.37;;;26.60;;
20255;SDS011;10286;59.364;18.016;2022-10-15T05:40:23;50.03;;;26.58;;
20255;SDS011;10286;59.364;18.016;2022-10-15T05:42:50;55.72;;;27.50;;
20255;SDS011;10286;59.364;18.016;2022-10-15T05:45:18;49.00;;;27.70;;
20255;SDS011;10286;59.364;18.016;2022-10-15T05:47:45;58.40;;;28.97;;
20255;SDS011;10286;59.364;18.016;2022-10-15T05:50:12;53.80;;;28.33;;
20255;SDS011;10286;59.364;18.016;2022-10-15T05:52:39;51.28;;;26.80;;
20255;SDS011;10286;59.364;18.016;2022-10-15T05:55:07;51.78;;;26.77;;
20255;SDS011;10286;59.364;18.016;2022-10-15T06:00:03;52.80;;;27.73;;
20255;SDS011;10286;59.364;18.016;2022-10-15T06:02:31;50.38;;;27.58;;
20255;SDS011;10286;59.364;18.016;2022-10-15T06:04:58;52.87;;;28.60;;
20255;SDS011;10286;59.364;18.016;2022-10-15T06:07:26;51.70;;;28.47;;
20255;SDS011;10286;59.364;18.016;2022-10-15T06:09:53;53.10;;;28.80;;
20255;SDS011;10286;59.364;18.016;2022-10-15T06:12:20;60.30;;;29.57;;
20255;SDS011;10286;59.364;18.016;2022-10-15T06:14:48;49.53;;;27.03;;
20255;SDS011;10286;59.364;18.016;2022-10-15T06:17:15;50.28;;;28.30;;
20255;SDS011;10286;59.364;18.016;2022-10-15T06:19:42;46.60;;;27.15;;
20255;SDS011;10286;59.364;18.016;2022-10-15T06:22:09;51.05;;;28.10;;
20255;SDS011;10286;59.364;18.016;2022-10-15T06:24:37;48.95;;;26.98;;
20255;SDS011;10286;59.364;18.016;2022-10-15T06:27:04;53.80;;;28.43;;
20255;SDS011;10286;59.364;18.016;2022-10-15T06:29:31;48.35;;;27.90;;
20255;SDS011;10286;59.364;18.016;2022-10-15T06:32:00;50.47;;;29.47;;
20255;SDS011;10286;59.364;18.016;2022-10-15T06:34:27;49.08;;;27.55;;
20255;SDS011;10286;59.364;18.016;2022-10-15T06:36:54;50.35;;;27.90;;
20255;SDS011;10286;59.364;18.016;2022-10-15T06:39:22;51.05;;;29.30;;
20255;SDS011;10286;59.364;18.016;2022-10-15T06:41:49;51.63;;;28.15;;
20255;SDS011;10286;59.364;18.016;2022-10-15T06:44:16;45.83;;;26.73;;
20255;SDS011;10286;59.364;18.016;2022-10-15T06:46:44;46.40;;;26.70;;
20255;SDS011;10286;59.364;18.016;2022-10-15T06:49:13;41.42;;;24.63;;
20255;SDS011;10286;59.364;18.016;2022-10-15T06:51:40;44.00;;;25.60;;
20255;SDS011;10286;59.364;18.016;2022-10-15T06:54:08;44.50;;;25.00;;
20255;SDS011;10286;59.364;18.016;2022-10-15T06:56:35;39.37;;;24.17;;
20255;SDS011;10286;59.364;18.016;2022-10-15T06:59:02;37.70;;;23.37;;
20255;SDS011;10286;59.364;18.016;2022-10-15T07:01:30;39.47;;;24.60;;
20255;SDS011;10286;59.364;18.016;2022-10-15T07:03:58;39.65;;;22.60;;
20255;SDS011;10286;59.364;18.016;2022-10-15T07:06:26;37.90;;;22.77;;
20255;SDS011;10286;59.364;18.016;2022-10-15T07:08:53;35.42;;;21.23;;
20255;SDS011;10286;59.364;18.016;2022-10-15T07:11:22;29.75;;;20.75;;
20255;SDS011;10286;59.364;18.016;2022-10-15T07:13:49;36.65;;;20.65;;
20255;SDS011;10286;59.364;18.016;2022-10-15T07:16:16;33.50;;;20.90;;
20255;SDS011;10286;59.364;18.016;2022-10-15T07:18:46;28.73;;;19.67;;
20255;SDS011;10286;59.364;18.016;2022-10-15T07:21:13;32.13;;;19.52;;
20255;SDS011;10286;59.364;18.016;2022-10-15T07:23:42;26.15;;;18.40;;
20255;SDS011;10286;59.364;18.016;2022-10-15T07:26:11;29.17;;;18.90;;
20255;SDS011;10286;59.364;18.016;2022-10-15T07:31:06;30.67;;;18.75;;
20255;SDS011;10286;59.364;18.016;2022-10-15T07:33:34;26.05;;;17.02;;
20255;SDS011;10286;59.364;18.016;2022-10-15T07:36:02;28.42;;;18.63;;
20255;SDS011;10286;59.364;18.016;2022-10-15T07:38:31;28.23;;;18.90;;
20255;SDS011;10286;59.364;18.016;2022-10-15T07:41:00;31.02;;;19.05;;
20255;SDS011;10286;59.364;18.016;2022-10-15T07:43:29;30.13;;;18.85;;
20255;SDS011;10286;59.364;18.016;2022-10-15T07:45:57;28.20;;;19.08;;
20255;SDS011;10286;59.364;18.016;2022-10-15T07:48:24;30.25;;;18.15;;
20255;SDS011;10286;59.364;18.016;2022-10-15T07:50:55;29.55;;;19.25;;
20255;SDS011;10286;59.364;18.016;2022-10-15T07:53:24;26.83;;;18.02;;
20255;SDS011;10286;59.364;18.016;2022-10-15T07:55:51;29.80;;;18.55;;
20255;SDS011;10286;59.364;18.016;2022-10-15T07:58:21;31.03;;;18.73;;
20255;SDS011;10286;59.364;18.016;2022-10-15T08:00:48;25.90;;;17.83;;
20255;SDS011;10286;59.364;18.016;2022-10-15T08:03:15;27.08;;;17.23;;
20255;SDS011;10286;59.364;18.016;2022-10-15T08:05:42;31.20;;;17.33;;
20255;SDS011;10286;59.364;18.016;2022-10-15T08:08:10;23.42;;;16.67;;
20255;SDS011;10286;59.364;18.016;2022-10-15T08:10:37;27.25;;;17.38;;
20255;SDS011;10286;59.364;18.016;2022-10-15T08:13:04;29.40;;;17.98;;
20255;SDS011;10286;59.364;18.016;2022-10-15T08:15:34;23.85;;;17.08;;
20255;SDS011;10286;59.364;18.016;2022-10-15T08:18:04;27.23;;;16.27;;
20255;SDS011;10286;59.364;18.016;2022-10-15T08:20:31;26.75;;;16.55;;
20255;SDS011;10286;59.364;18.016;2022-10-15T08:22:59;25.98;;;15.63;;
20255;SDS011;10286;59.364;18.016;2022-10-15T08:25:27;24.67;;;16.98;;
20255;SDS011;10286;59.364;18.016;2022-10-15T08:27:55;26.00;;;17.02;;
20255;SDS011;10286;59.364;18.016;2022-10-15T08:30:23;28.02;;;17.23;;
20255;SDS011;10286;59.364;18.016;2022-10-15T08:32:52;28.58;;;18.20;;
20255;SDS011;10286;59.364;18.016;2022-10-15T08:35:19;26.88;;;16.70;;
20255;SDS011;10286;59.364;18.016;2022-10-15T08:37:48;23.80;;;17.33;;
20255;SDS011;10286;59.364;18.016;2022-10-15T08:40:19;23.40;;;16.95;;
20255;SDS011;10286;59.364;18.016;2022-10-15T08:42:48;26.20;;;17.48;;
20255;SDS011;10286;59.364;18.016;2022-10-15T08:45:16;19.63;;;15.88;;
20255;SDS011;10286;59.364;18.016;2022-10-15T08:47:49;26.40;;;16.65;;
20255;SDS011;10286;59.364;18.016;2022-10-15T08:50:24;23.77;;;15.77;;
20255;SDS011;10286;59.364;18.016;2022-10-15T08:52:53;24.75;;;16.77;;
20255;SDS011;10286;59.364;18.016;2022-10-15T08:55:27;28.52;;;16.83;;
20255;SDS011;10286;59.364;18.016;2022-10-15T08:58:01;23.40;;;16.42;;
20255;SDS011;10286;59.364;18.016;2022-10-15T09:00:40;22.75;;;16.65;;
20255;SDS011;10286;59.364;18.016;2022-10-15T09:03:13;24.75;;;16.45;;
20255;SDS011;10286;59.364;18.016;2022-10-15T09:06:02;25.77;;;16.77;;
20255;SDS011;10286;59.364;18.016;2022-10-15T09:08:39;25.13;;;17.40;;
20255;SDS011;10286;59.364;18.016;2022-10-15T09:11:12;22.58;;;15.68;;
20255;SDS011;10286;59.364;18.016;2022-10-15T09:13:50;26.63;;;16.10;;
20255;SDS011;10286;59.364;18.016;2022-10-15T09:16:18;21.98;;;15.90;;
20255;SDS011;10286;59.364;18.016;2022-10-15T09:18:52;23.95;;;15.82;;
20255;SDS011;10286;59.364;18.016;2022-10-15T09:21:22;28.27;;;15.70;;
20255;SDS011;10286;59.364;18.016;2022-10-15T09:23:50;23.77;;;15.77;;
20255;SDS011;10286;59.364;18.016;2022-10-15T09:26:22;24.92;;;15.93;;
20255;SDS011;10286;59.364;18.016;2022-10-15T09:28:57;22.13;;;15.10;;
20255;SDS011;10286;59.364;18.016;2022-10-15T09:31:31;20.73;;;15.07;;
20255;SDS011;10286;59.364;18.016;2022-10-15T09:34:05;19.13;;;14.27;;
20255;SDS011;10286;59.364;18.016;2022-10-15T09:36:41;21.63;;;13.95;;
20255;SDS011;10286;59.364;18.016;2022-10-15T09:39:16;20.75;;;14.32;;
20255;SDS011;10286;59.364;18.016;2022-10-15T09:42:00;21.65;;;14.38;;
20255;SDS011;10286;59.364;18.016;2022-10-15T09:44:39;21.17;;;14.55;;
20255;SDS011;10286;59.364;18.016;2022-10-15T09:47:16;22.00;;;14.02;;
20255;SDS011;10286;59.364;18.016;2022-10-15T09:49:50;23.27;;;15.40;;
20255;SDS011;10286;59.364;18.016;2022-10-15T09:52:20;19.80;;;14.73;;
20255;SDS011;10286;59.364;18.016;2022-10-15T09:54:58;22.13;;;14.88;;
20255;SDS011;10286;59.364;18.016;2022-10-15T09:57:34;22.23;;;15.30;;
20255;SDS011;10286;59.364;18.016;2022-10-15T10:00:04;22.30;;;14.63;;
20255;SDS011;10286;59.364;18.016;2022-10-15T10:02:35;22.73;;;14.98;;
20255;SDS011;10286;59.364;18.016;2022-10-15T10:05:18;20.17;;;13.45;;
20255;SDS011;10286;59.364;18.016;2022-10-15T10:07:55;18.75;;;13.45;;
20255;SDS011;10286;59.364;18.016;2022-10-15T10:10:35;18.98;;;13.45;;
20255;SDS011;10286;59.364;18.016;2022-10-15T10:13:04;22.30;;;14.00;;
20255;SDS011;10286;59.364;18.016;2022-10-15T10:15:43;22.33;;;14.68;;
20255;SDS011;10286;59.364;18.016;2022-10-15T10:18:16;16.58;;;13.55;;
20255;SDS011;10286;59.364;18.016;2022-10-15T10:20:53;23.30;;;15.85;;
20255;SDS011;10286;59.364;18.016;2022-10-15T10:23:24;22.30;;;14.88;;
20255;SDS011;10286;59.364;18.016;2022-10-15T10:25:55;23.98;;;15.82;;
20255;SDS011;10286;59.364;18.016;2022-10-15T10:28:26;21.98;;;15.35;;
20255;SDS011;10286;59.364;18.016;2022-10-15T10:31:04;22.20;;;15.90;;
20255;SDS011;10286;59.364;18.016;2022-10-15T10:33:34;23.10;;;15.68;;
20255;SDS011;10286;59.364;18.016;2022-10-15T10:36:05;28.20;;;16.17;;
20255;SDS011;10286;59.364;18.016;2022-10-15T10:38:34;22.88;;;16.33;;
20255;SDS011;10286;59.364;18.016;2022-10-15T10:41:04;20.58;;;16.10;;
20255;SDS011;10286;59.364;18.016;2022-10-15T10:43:34;27.48;;;17.55;;
20255;SDS011;10286;59.364;18.016;2022-10-15T10:46:03;27.45;;;18.38;;
20255;SDS011;10286;59.364;18.016;2022-10-15T10:48:39;27.00;;;19.10;;
20255;SDS011;10286;59.364;18.016;2022-10-15T10:51:10;30.92;;;18.98;;
20255;SDS011;10286;59.364;18.016;2022-10-15T10:53:43;33.25;;;19.33;;
20255;SDS011;10286;59.364;18.016;2022-10-15T10:56:13;29.75;;;19.73;;
20255;SDS011;10286;59.364;18.016;2022-10-15T10:58:45;31.63;;;19.35;;
20255;SDS011;10286;59.364;18.016;2022-10-15T11:01:17;29.23;;;19.98;;
20255;SDS011;10286;59.364;18.016;2022-10-15T11:03:45;33.38;;;20.02;;
20255;SDS011;10286;59.364;18.016;2022-10-15T11:06:26;31.70;;;18.73;;
20255;SDS011;10286;59.364;18.016;2022-10-15T11:09:09;33.58;;;19.50;;
20255;SDS011;10286;59.364;18.016;2022-10-15T11:12:02;35.75;;;21.88;;
20255;SDS011;10286;59.364;18.016;2022-10-15T11:14:42;36.42;;;23.08;;
20255;SDS011;10286;59.364;18.016;2022-10-15T11:19:51;34.35;;;23.83;;
20255;SDS011;10286;59.364;18.016;2022-10-15T11:22:28;39.05;;;24.00;;
20255;SDS011;10286;59.364;18.016;2022-10-15T11:25:07;35.92;;;24.48;;
20255;SDS011;10286;59.364;18.016;2022-10-15T11:27:49;40.13;;;23.52;;
20255;SDS011;10286;59.364;18.016;2022-10-15T11:30:36;30.52;;;22.80;;
20255;SDS011;10286;59.364;18.016;2022-10-15T11:33:18;34.42;;;22.40;;
20255;SDS011;10286;59.364;18.016;2022-10-15T11:35:58;31.52;;;23.60;;
20255;SDS011;10286;59.364;18.016;2022-10-15T11:38:38;36.85;;;22.67;;
20255;SDS011;10286;59.364;18.016;2022-10-15T11:41:18;36.90;;;24.33;;
20255;SDS011;10286;59.364;18.016;2022-10-15T11:44:00;35.97;;;23.33;;
20255;SDS011;10286;59.364;18.016;2022-10-15T11:46:46;37.33;;;24.25;;
20255;SDS011;10286;59.364;18.016;2022-10-15T11:49:27;44.35;;;24.27;;
20255;SDS011;10286;59.364;18.016;2022-10-15T11:52:12;40.28;;;24.05;;
20255;SDS011;10286;59.364;18.016;2022-10-15T11:54:54;33.38;;;22.63;;
20255;SDS011;10286;59.364;18.016;2022-10-15T11:57:27;31.30;;;21.85;;
20255;SDS011;10286;59.364;18.016;2022-10-15T11:59:57;30.35;;;22.17;;
20255;SDS011;10286;59.364;18.016;2022-10-15T12:02:29;36.20;;;21.67;;
20255;SDS011;10286;59.364;18.016;2022-10-15T12:05:01;32.17;;;21.63;;
20255;SDS011;10286;59.364;18.016;2022-10-15T12:07:32;29.88;;;20.70;;
20255;SDS011;10286;59.364;18.016;2022-10-15T12:10:07;31.13;;;21.75;;
20255;SDS011;10286;59.364;18.016;2022-10-15T12:12:52;27.83;;;20.58;;
20255;SDS011;10286;59.364;18.016;2022-10-15T12:15:26;28.75;;;21.02;;
20255;SDS011;10286;59.364;18.016;2022-10-15T12:18:02;29.95;;;22.60;;
20255;SDS011;10286;59.364;18.016;2022-10-15T12:20:39;28.65;;;21.05;;
20255;SDS011;10286;59.364;18.016;2022-10-15T12:23:20;27.98;;;20.98;;
20255;SDS011;10286;59.364;18.016;2022-10-15T12:25:51;31.00;;;21.63;;
20255;SDS011;10286;59.364;18.016;2022-10-15T12:28:19;35.40;;;23.85;;
20255;SDS011;10286;59.364;18.016;2022-10-15T12:30:55;34.13;;;23.48;;
20255;SDS011;10286;59.364;18.016;2022-10-15T12:33:33;37.42;;;24.67;;
20255;SDS011;10286;59.364;18.016;2022-10-15T12:36:03;35.40;;;25.42;;
20255;SDS011;10286;59.364;18.016;2022-10-15T12:38:34;37.60;;;25.42;;
20255;SDS011;10286;59.364;18.016;2022-10-15T12:41:07;37.47;;;26.10;;
20255;SDS011;10286;59.364;18.016;2022-10-15T12:43:37;40.17;;;27.13;;
20255;SDS011;10286;59.364;18.016;2022-10-15T12:46:09;38.20;;;25.88;;
20255;SDS011;10286;59.364;18.016;2022-10-15T12:48:38;35.42;;;24.35;;
20255;SDS011;10286;59.364;18.016;2022-10-15T12:57:42;31.67;;;22.58;;
20255;SDS011;10286;59.364;18.016;2022-10-15T13:03:08;33.67;;;23.60;;
20255;SDS011;10286;59.364;18.016;2022-10-15T13:05:47;33.65;;;23.75;;
20255;SDS011;10286;59.364;18.016;2022-10-15T13:08:23;33.42;;;22.65;;
20255;SDS011;10286;59.364;18.016;2022-10-15T13:10:55;29.15;;;21.25;;
20255;SDS011;10286;59.364;18.016;2022-10-15T13:13:27;33.25;;;23.50;;
20255;SDS011;10286;59.364;18.016;2022-10-15T13:15:56;32.05;;;22.80;;
20255;SDS011;10286;59.364;18.016;2022-10-15T13:18:25;30.20;;;22.75;;
20255;SDS011;10286;59.364;18.016;2022-10-15T13:20:55;31.10;;;22.90;;
20255;SDS011;10286;59.364;18.016;2022-10-15T13:23:24;31.63;;;23.33;;
20255;SDS011;10286;59.364;18.016;2022-10-15T13:28:41;37.97;;;25.77;;
20255;SDS011;10286;59.364;18.016;2022-10-15T13:31:12;42.20;;;26.63;;
20255;SDS011;10286;59.364;18.016;2022-10-15T13:33:44;42.30;;;27.77;;
20255;SDS011;10286;59.364;18.016;2022-10-15T13:36:16;37.22;;;26.90;;
20255;SDS011;10286;59.364;18.016;2022-10-15T13:38:50;35.35;;;26.20;;
20255;SDS011;10286;59.364;18.016;2022-10-15T13:41:23;37.40;;;25.63;;
20255;SDS011;10286;59.364;18.016;2022-10-15T13:43:54;38.78;;;25.85;;
20255;SDS011;10286;59.364;18.016;2022-10-15T13:46:25;35.78;;;25.27;;
20255;SDS011;10286;59.364;18.016;2022-10-15T13:48:57;35.03;;;24.88;;
20255;SDS011;10286;59.364;18.016;2022-10-15T13:51:29;32.83;;;23.83;;
20255;SDS011;10286;59.364;18.016;2022-10-15T13:53:59;31.10;;;22.75;;
20255;SDS011;10286;59.364;18.016;2022-10-15T13:56:28;34.08;;;22.90;;
20255;SDS011;10286;59.364;18.016;2022-10-15T13:58:59;31.05;;;22.63;;
20255;SDS011;10286;59.364;18.016;2022-10-15T14:01:28;32.70;;;23.23;;
20255;SDS011;10286;59.364;18.016;2022-10-15T14:03:56;33.55;;;22.83;;
20255;SDS011;10286;59.364;18.016;2022-10-15T14:06:26;35.97;;;24.50;;
20255;SDS011;10286;59.364;18.016;2022-10-15T14:08:55;32.58;;;24.13;;
20255;SDS011;10286;59.364;18.016;2022-10-15T14:11:23;36.13;;;24.33;;
20255;SDS011;10286;59.364;18.016;2022-10-15T14:13:52;32.85;;;23.13;;
20255;SDS011;10286;59.364;18.016;2022-10-15T14:16:23;34.72;;;23.98;;
20255;SDS011;10286;59.364;18.016;2022-10-15T14:18:55;37.28;;;24.00;;
20255;SDS011;10286;59.364;18.016;2022-10-15T14:21:33;36.00;;;25.35;;
20255;SDS011;10286;59.364;18.016;2022-10-15T14:24:02;39.90;;;26.25;;
20255;SDS011;10286;59.364;18.016;2022-10-15T14:26:32;40.00;;;26.38;;
20255;SDS011;10286;59.364;18.016;2022-10-15T14:29:00;36.08;;;26.08;;
20255;SDS011;10286;59.364;18.016;2022-10-15T14:31:31;42.88;;;27.52;;
20255;SDS011;10286;59.364;18.016;2022-10-15T14:34:23;37.65;;;27.05;;
20255;SDS011;10286;59.364;18.016;2022-10-15T14:36:57;41.40;;;27.60;;
20255;SDS011;10286;59.364;18.016;2022-10-15T14:39:25;45.10;;;28.83;;
20255;SDS011;10286;59.364;18.016;2022-10-15T14:41:56;44.45;;;27.27;;
20255;SDS011;10286;59.364;18.016;2022-10-15T14:44:24;44.72;;;28.27;;
20255;SDS011;10286;59.364;18.016;2022-10-15T14:47:00;41.33;;;28.25;;
20255;SDS011;10286;59.364;18.016;2022-10-15T14:49:29;45.97;;;28.52;;
20255;SDS011;10286;59.364;18.016;2022-10-15T14:51:59;44.33;;;29.33;;
20255;SDS011;10286;59.364;18.016;2022-10-15T14:54:33;41.72;;;26.95;;